Donna York — WDE8199 — position and weather

sailwx.info

Track history (hours):
 
Tides and Currents Weather Stations Pressure Air Temp Water Temp Dewpoint Dewpoint Depression Visibility Wind Speed Wind Dir Waves Ship Positions

Donna York

Owner: Crounse Corporation, Maysville, KY. More information available from US FCC via Universal Licensing System and Coast Guard Vessel Documentation Center.

Last reported at 2015-Jul-01 01:32 UTC. Time now 2015-Jul-01 01:49 UTC.
Position N 38°42' W 083°49'.

Length 34 m.

Type: Towing. MMSI: 367402680.

Date/timePositionNaut miles runAvg speedWind from/ knotsBaromVisibWave heightAir tempDewpointWater temp
2015-Jul-01 01:32N 38°42' W 083°49'2 2.1
2015-Jul-01 00:31N 38°44' W 083°51'3 2.9
2015-Jun-30 23:33N 38°46' W 083°54'3 3.0
2015-Jun-30 22:33N 38°47' W 083°57'3 3.2
2015-Jun-30 21:32N 38°46' W 084°01'3 3.0
2015-Jun-30 20:33N 38°46' W 084°05'3 3.0
2015-Jun-30 19:30N 38°48' W 084°09'2 1.5
2015-Jun-30 18:28N 38°48' W 084°11'2 2.2
2015-Jun-30 17:33N 38°49' W 084°13'3 2.5
2015-Jun-30 16:33N 38°51' W 084°14'2 2.5
2015-Jun-30 15:32N 38°54' W 084°14'3 2.8
2015-Jun-30 14:32N 38°56' W 084°16'3 2.9
2015-Jun-30 13:33N 38°59' W 084°18'3 2.6
2015-Jun-30 12:32N 39°01' W 084°19'1 1.1
2015-Jun-30 11:32N 39°02' W 084°20'3 2.7
2015-Jun-30 10:33N 39°03' W 084°23'2 2.4
2015-Jun-30 09:32N 39°04' W 084°26'3 2.5
2015-Jun-30 08:33N 39°06' W 084°26'2 1.9
2015-Jun-30 07:33N 39°07' W 084°29'2 1.9
2015-Jun-30 06:32N 39°06' W 084°30'2 1.7
2015-Jun-30 05:32N 39°06' W 084°33'1 1.0
2015-Jun-30 04:32N 39°05' W 084°34'2 1.7
2015-Jun-30 03:32N 39°04' W 084°36'3 2.8
2015-Jun-30 02:33N 39°05' W 084°39'3 2.7
2015-Jun-30 01:33N 39°07' W 084°42'3 3.0
2015-Jun-30 00:33N 39°09' W 084°45'  
2015-Jun-22 01:32N 39°04' W 084°54'6 6.1
2015-Jun-22 00:33N 39°07' W 084°47'4 4.1
2015-Jun-21 23:33N 39°06' W 084°42'6 5.6
2015-Jun-21 22:33N 39°05' W 084°35'6 5.7
2015-Jun-21 21:33N 39°07' W 084°28'5 5.2
2015-Jun-21 20:33N 39°03' W 084°25'6 5.5
2015-Jun-21 19:33N 39°00' W 084°18'6 5.8
2015-Jun-21 18:33N 38°55' W 084°15'24 3.4
2015-Jun-21 11:32N 38°42' W 083°49'0 0.0
2015-Jun-21 10:33N 38°42' W 083°49'  
Track history (hours):
 
Tides and Currents Weather Stations Pressure Air Temp Water Temp Dewpoint Dewpoint Depression Visibility Wind Speed Wind Dir Waves Ship Positions

Donna York

Owner: Crounse Corporation, Maysville, KY. More information available from US FCC via Universal Licensing System and Coast Guard Vessel Documentation Center.

Last reported at 2015-Jul-01 01:32 UTC. Time now 2015-Jul-01 01:49 UTC.
Position N 38°42' W 083°49'.

Length 34 m.

Type: Towing. MMSI: 367402680.

Date/timePositionNaut miles runAvg speedWind from/ knotsBaromVisibWave heightAir tempDewpointWater temp
2015-Jul-01 01:32N 38°42' W 083°49'2 2.1
2015-Jul-01 00:31N 38°44' W 083°51'3 2.9
2015-Jun-30 23:33N 38°46' W 083°54'3 3.0
2015-Jun-30 22:33N 38°47' W 083°57'3 3.2
2015-Jun-30 21:32N 38°46' W 084°01'3 3.0
2015-Jun-30 20:33N 38°46' W 084°05'3 3.0
2015-Jun-30 19:30N 38°48' W 084°09'2 1.5
2015-Jun-30 18:28N 38°48' W 084°11'2 2.2
2015-Jun-30 17:33N 38°49' W 084°13'3 2.5
2015-Jun-30 16:33N 38°51' W 084°14'2 2.5
2015-Jun-30 15:32N 38°54' W 084°14'3 2.8
2015-Jun-30 14:32N 38°56' W 084°16'3 2.9
2015-Jun-30 13:33N 38°59' W 084°18'3 2.6
2015-Jun-30 12:32N 39°01' W 084°19'1 1.1
2015-Jun-30 11:32N 39°02' W 084°20'3 2.7
2015-Jun-30 10:33N 39°03' W 084°23'2 2.4
2015-Jun-30 09:32N 39°04' W 084°26'3 2.5
2015-Jun-30 08:33N 39°06' W 084°26'2 1.9
2015-Jun-30 07:33N 39°07' W 084°29'2 1.9
2015-Jun-30 06:32N 39°06' W 084°30'2 1.7
2015-Jun-30 05:32N 39°06' W 084°33'1 1.0
2015-Jun-30 04:32N 39°05' W 084°34'2 1.7
2015-Jun-30 03:32N 39°04' W 084°36'3 2.8
2015-Jun-30 02:33N 39°05' W 084°39'3 2.7
2015-Jun-30 01:33N 39°07' W 084°42'3 3.0
2015-Jun-30 00:33N 39°09' W 084°45'  
2015-Jun-22 01:32N 39°04' W 084°54'6 6.1
2015-Jun-22 00:33N 39°07' W 084°47'4 4.1
2015-Jun-21 23:33N 39°06' W 084°42'6 5.6
2015-Jun-21 22:33N 39°05' W 084°35'6 5.7
2015-Jun-21 21:33N 39°07' W 084°28'5 5.2
2015-Jun-21 20:33N 39°03' W 084°25'6 5.5
2015-Jun-21 19:33N 39°00' W 084°18'6 5.8
2015-Jun-21 18:33N 38°55' W 084°15'24 3.4
2015-Jun-21 11:32N 38°42' W 083°49'0 0.0
2015-Jun-21 10:33N 38°42' W 083°49'  

Dump ship's entire track history